sensor_id;sensor_type;location;lat;lon;timestamp;temperature;humidity
78767;SHT31;68092;51.982;5.680;2024-02-04T00:00:35;14.3;70.2
78767;SHT31;68092;51.982;5.680;2024-02-04T00:03:04;14.3;70.4
78767;SHT31;68092;51.982;5.680;2024-02-04T00:05:33;14.3;70.6
78767;SHT31;68092;51.982;5.680;2024-02-04T00:08:02;14.3;70.7
78767;SHT31;68092;51.982;5.680;2024-02-04T00:10:30;14.2;70.7
78767;SHT31;68092;51.982;5.680;2024-02-04T00:13:00;14.2;70.8
78767;SHT31;68092;51.982;5.680;2024-02-04T00:15:29;14.2;70.8
78767;SHT31;68092;51.982;5.680;2024-02-04T00:18:00;14.2;70.8
78767;SHT31;68092;51.982;5.680;2024-02-04T00:20:28;14.2;70.9
78767;SHT31;68092;51.982;5.680;2024-02-04T00:22:59;14.2;70.9
78767;SHT31;68092;51.982;5.680;2024-02-04T00:25:27;14.2;71.0
78767;SHT31;68092;51.982;5.680;2024-02-04T00:27:57;14.1;71.0
78767;SHT31;68092;51.982;5.680;2024-02-04T00:30:25;14.1;71.2
78767;SHT31;68092;51.982;5.680;2024-02-04T00:32:54;14.1;71.3
78767;SHT31;68092;51.982;5.680;2024-02-04T00:35:27;14.1;71.3
78767;SHT31;68092;51.982;5.680;2024-02-04T00:37:57;14.1;71.4
78767;SHT31;68092;51.982;5.680;2024-02-04T00:40:25;14.1;71.4
78767;SHT31;68092;51.982;5.680;2024-02-04T00:42:54;14.1;71.3
78767;SHT31;68092;51.982;5.680;2024-02-04T00:45:23;14.1;71.3
78767;SHT31;68092;51.982;5.680;2024-02-04T00:47:52;14.2;71.3
78767;SHT31;68092;51.982;5.680;2024-02-04T00:50:20;14.2;71.2
78767;SHT31;68092;51.982;5.680;2024-02-04T00:52:49;14.2;71.2
78767;SHT31;68092;51.982;5.680;2024-02-04T00:55:21;14.2;71.2
78767;SHT31;68092;51.982;5.680;2024-02-04T00:57:52;14.2;71.2
78767;SHT31;68092;51.982;5.680;2024-02-04T01:00:22;14.2;71.2
78767;SHT31;68092;51.982;5.680;2024-02-04T01:02:53;14.2;71.2
78767;SHT31;68092;51.982;5.680;2024-02-04T01:05:21;14.2;71.1
78767;SHT31;68092;51.982;5.680;2024-02-04T01:07:51;14.2;71.0
78767;SHT31;68092;51.982;5.680;2024-02-04T01:10:20;14.2;71.0
78767;SHT31;68092;51.982;5.680;2024-02-04T01:12:49;14.2;71.0
78767;SHT31;68092;51.982;5.680;2024-02-04T01:15:18;14.2;71.0
78767;SHT31;68092;51.982;5.680;2024-02-04T01:17:47;14.2;70.9
78767;SHT31;68092;51.982;5.680;2024-02-04T01:20:17;14.2;70.9
78767;SHT31;68092;51.982;5.680;2024-02-04T01:22:45;14.2;70.9
78767;SHT31;68092;51.982;5.680;2024-02-04T01:25:14;14.2;70.8
78767;SHT31;68092;51.982;5.680;2024-02-04T01:27:43;14.2;70.9
78767;SHT31;68092;51.982;5.680;2024-02-04T01:30:11;14.2;70.9
78767;SHT31;68092;51.982;5.680;2024-02-04T01:32:40;14.2;70.8
78767;SHT31;68092;51.982;5.680;2024-02-04T01:35:09;14.2;70.8
78767;SHT31;68092;51.982;5.680;2024-02-04T01:37:40;14.2;70.8
78767;SHT31;68092;51.982;5.680;2024-02-04T01:40:10;14.3;70.8
78767;SHT31;68092;51.982;5.680;2024-02-04T01:42:40;14.3;70.7
78767;SHT31;68092;51.982;5.680;2024-02-04T01:45:10;14.3;70.7
78767;SHT31;68092;51.982;5.680;2024-02-04T01:47:39;14.3;70.4
78767;SHT31;68092;51.982;5.680;2024-02-04T01:50:11;14.3;70.3
78767;SHT31;68092;51.982;5.680;2024-02-04T01:52:41;14.3;70.2
78767;SHT31;68092;51.982;5.680;2024-02-04T01:55:15;14.4;70.1
78767;SHT31;68092;51.982;5.680;2024-02-04T01:57:47;14.4;69.9
78767;SHT31;68092;51.982;5.680;2024-02-04T02:00:17;14.4;69.9
78767;SHT31;68092;51.982;5.680;2024-02-04T02:02:47;14.4;69.7
78767;SHT31;68092;51.982;5.680;2024-02-04T02:05:18;14.4;69.6
78767;SHT31;68092;51.982;5.680;2024-02-04T02:07:47;14.4;69.4
78767;SHT31;68092;51.982;5.680;2024-02-04T02:10:18;14.5;69.2
78767;SHT31;68092;51.982;5.680;2024-02-04T02:12:52;14.5;69.1
78767;SHT31;68092;51.982;5.680;2024-02-04T02:15:27;14.5;69.0
78767;SHT31;68092;51.982;5.680;2024-02-04T02:18:01;14.5;69.1
78767;SHT31;68092;51.982;5.680;2024-02-04T02:20:38;14.5;69.1
78767;SHT31;68092;51.982;5.680;2024-02-04T02:23:14;14.5;69.1
78767;SHT31;68092;51.982;5.680;2024-02-04T02:25:46;14.5;69.1
78767;SHT31;68092;51.982;5.680;2024-02-04T02:28:14;14.4;69.1
78767;SHT31;68092;51.982;5.680;2024-02-04T02:30:43;14.4;69.0
78767;SHT31;68092;51.982;5.680;2024-02-04T02:33:12;14.4;69.0
78767;SHT31;68092;51.982;5.680;2024-02-04T02:35:43;14.4;69.0
78767;SHT31;68092;51.982;5.680;2024-02-04T02:38:24;14.4;69.0
78767;SHT31;68092;51.982;5.680;2024-02-04T02:40:58;14.4;68.7
78767;SHT31;68092;51.982;5.680;2024-02-04T02:43:29;14.4;68.9
78767;SHT31;68092;51.982;5.680;2024-02-04T02:45:59;14.4;68.8
78767;SHT31;68092;51.982;5.680;2024-02-04T02:48:28;14.4;68.7
78767;SHT31;68092;51.982;5.680;2024-02-04T02:50:57;14.4;68.7
78767;SHT31;68092;51.982;5.680;2024-02-04T02:53:26;14.4;68.8
78767;SHT31;68092;51.982;5.680;2024-02-04T02:55:55;14.4;68.9
78767;SHT31;68092;51.982;5.680;2024-02-04T02:58:23;14.4;69.0
78767;SHT31;68092;51.982;5.680;2024-02-04T03:00:52;14.4;68.9
78767;SHT31;68092;51.982;5.680;2024-02-04T03:03:20;14.4;68.9
78767;SHT31;68092;51.982;5.680;2024-02-04T03:05:49;14.4;68.9
78767;SHT31;68092;51.982;5.680;2024-02-04T03:08:17;14.4;68.8
78767;SHT31;68092;51.982;5.680;2024-02-04T03:10:46;14.4;68.8
78767;SHT31;68092;51.982;5.680;2024-02-04T03:13:14;14.4;68.8
78767;SHT31;68092;51.982;5.680;2024-02-04T03:15:43;14.4;68.8
78767;SHT31;68092;51.982;5.680;2024-02-04T03:18:12;14.4;68.9
78767;SHT31;68092;51.982;5.680;2024-02-04T03:20:41;14.4;68.9
78767;SHT31;68092;51.982;5.680;2024-02-04T03:23:10;14.4;68.8
78767;SHT31;68092;51.982;5.680;2024-02-04T03:25:38;14.4;68.7
78767;SHT31;68092;51.982;5.680;2024-02-04T03:28:07;14.4;68.7
78767;SHT31;68092;51.982;5.680;2024-02-04T03:30:35;14.4;68.5
78767;SHT31;68092;51.982;5.680;2024-02-04T03:33:04;14.4;68.3
78767;SHT31;68092;51.982;5.680;2024-02-04T03:35:33;14.4;68.1
78767;SHT31;68092;51.982;5.680;2024-02-04T03:38:03;14.4;67.6
78767;SHT31;68092;51.982;5.680;2024-02-04T03:40:32;14.3;67.4
78767;SHT31;68092;51.982;5.680;2024-02-04T03:43:01;14.3;67.1
78767;SHT31;68092;51.982;5.680;2024-02-04T03:45:30;14.3;67.0
78767;SHT31;68092;51.982;5.680;2024-02-04T03:47:58;14.3;66.9
78767;SHT31;68092;51.982;5.680;2024-02-04T03:50:27;14.2;67.0
78767;SHT31;68092;51.982;5.680;2024-02-04T03:52:55;14.2;66.9
78767;SHT31;68092;51.982;5.680;2024-02-04T03:55:25;14.2;67.0
78767;SHT31;68092;51.982;5.680;2024-02-04T03:57:55;14.2;67.0
78767;SHT31;68092;51.982;5.680;2024-02-04T04:00:24;14.2;67.2
78767;SHT31;68092;51.982;5.680;2024-02-04T04:02:53;14.2;67.3
78767;SHT31;68092;51.982;5.680;2024-02-04T04:05:22;14.2;67.3
78767;SHT31;68092;51.982;5.680;2024-02-04T04:07:52;14.2;67.5
78767;SHT31;68092;51.982;5.680;2024-02-04T04:10:21;14.2;67.6
78767;SHT31;68092;51.982;5.680;2024-02-04T04:12:49;14.2;67.7
78767;SHT31;68092;51.982;5.680;2024-02-04T04:15:20;14.2;67.7
78767;SHT31;68092;51.982;5.680;2024-02-04T04:17:50;14.2;67.6
78767;SHT31;68092;51.982;5.680;2024-02-04T04:20:18;14.2;67.5
78767;SHT31;68092;51.982;5.680;2024-02-04T04:22:47;14.2;67.4
78767;SHT31;68092;51.982;5.680;2024-02-04T04:25:15;14.2;67.3
78767;SHT31;68092;51.982;5.680;2024-02-04T04:27:45;14.2;67.2
78767;SHT31;68092;51.982;5.680;2024-02-04T04:30:15;14.2;67.2
78767;SHT31;68092;51.982;5.680;2024-02-04T04:32:44;14.2;67.1
78767;SHT31;68092;51.982;5.680;2024-02-04T04:35:12;14.2;67.2
78767;SHT31;68092;51.982;5.680;2024-02-04T04:37:41;14.2;67.1
78767;SHT31;68092;51.982;5.680;2024-02-04T04:40:11;14.2;67.2
78767;SHT31;68092;51.982;5.680;2024-02-04T04:42:39;14.2;67.1
78767;SHT31;68092;51.982;5.680;2024-02-04T04:45:09;14.2;67.1
78767;SHT31;68092;51.982;5.680;2024-02-04T04:47:40;14.2;67.0
78767;SHT31;68092;51.982;5.680;2024-02-04T04:50:09;14.2;67.1
78767;SHT31;68092;51.982;5.680;2024-02-04T04:52:37;14.2;67.2
78767;SHT31;68092;51.982;5.680;2024-02-04T04:55:06;14.2;67.2
78767;SHT31;68092;51.982;5.680;2024-02-04T04:57:36;14.2;67.2
78767;SHT31;68092;51.982;5.680;2024-02-04T05:00:07;14.2;67.3
78767;SHT31;68092;51.982;5.680;2024-02-04T05:02:37;14.2;67.3
78767;SHT31;68092;51.982;5.680;2024-02-04T05:05:06;14.2;67.1
78767;SHT31;68092;51.982;5.680;2024-02-04T05:07:34;14.2;67.1
78767;SHT31;68092;51.982;5.680;2024-02-04T05:10:03;14.2;67.0
78767;SHT31;68092;51.982;5.680;2024-02-04T05:12:33;14.1;67.1
78767;SHT31;68092;51.982;5.680;2024-02-04T05:15:02;14.1;67.3
78767;SHT31;68092;51.982;5.680;2024-02-04T05:17:30;14.1;67.2
78767;SHT31;68092;51.982;5.680;2024-02-04T05:20:00;14.1;67.2
78767;SHT31;68092;51.982;5.680;2024-02-04T05:22:30;14.1;67.2
78767;SHT31;68092;51.982;5.680;2024-02-04T05:24:58;14.1;67.2
78767;SHT31;68092;51.982;5.680;2024-02-04T05:27:27;14.1;67.1
78767;SHT31;68092;51.982;5.680;2024-02-04T05:29:55;14.1;67.1
78767;SHT31;68092;51.982;5.680;2024-02-04T05:32:24;14.1;67.1
78767;SHT31;68092;51.982;5.680;2024-02-04T05:34:52;14.1;67.0
78767;SHT31;68092;51.982;5.680;2024-02-04T05:37:23;14.1;67.1
78767;SHT31;68092;51.982;5.680;2024-02-04T05:39:52;14.1;67.3
78767;SHT31;68092;51.982;5.680;2024-02-04T05:42:20;14.1;67.3
78767;SHT31;68092;51.982;5.680;2024-02-04T05:44:49;14.0;67.4
78767;SHT31;68092;51.982;5.680;2024-02-04T05:47:17;14.0;67.3
78767;SHT31;68092;51.982;5.680;2024-02-04T05:49:46;14.0;67.2
78767;SHT31;68092;51.982;5.680;2024-02-04T05:52:15;14.0;67.4
78767;SHT31;68092;51.982;5.680;2024-02-04T05:54:44;14.0;67.2
78767;SHT31;68092;51.982;5.680;2024-02-04T05:57:12;14.0;67.1
78767;SHT31;68092;51.982;5.680;2024-02-04T05:59:42;14.0;67.1
78767;SHT31;68092;51.982;5.680;2024-02-04T06:02:10;14.0;67.0
78767;SHT31;68092;51.982;5.680;2024-02-04T06:04:39;14.0;67.1
78767;SHT31;68092;51.982;5.680;2024-02-04T06:07:10;14.0;67.2
78767;SHT31;68092;51.982;5.680;2024-02-04T06:09:41;14.0;67.4
78767;SHT31;68092;51.982;5.680;2024-02-04T06:12:09;14.0;67.6
78767;SHT31;68092;51.982;5.680;2024-02-04T06:14:38;13.9;67.8
78767;SHT31;68092;51.982;5.680;2024-02-04T06:17:07;13.9;67.9
78767;SHT31;68092;51.982;5.680;2024-02-04T06:19:36;13.9;68.2
78767;SHT31;68092;51.982;5.680;2024-02-04T06:22:07;14.0;68.3
78767;SHT31;68092;51.982;5.680;2024-02-04T06:24:35;14.0;68.3
78767;SHT31;68092;51.982;5.680;2024-02-04T06:27:08;14.0;68.4
78767;SHT31;68092;51.982;5.680;2024-02-04T06:29:36;14.0;68.3
78767;SHT31;68092;51.982;5.680;2024-02-04T06:32:06;14.0;68.3
78767;SHT31;68092;51.982;5.680;2024-02-04T06:34:35;14.0;68.5
78767;SHT31;68092;51.982;5.680;2024-02-04T06:37:03;14.0;68.6
78767;SHT31;68092;51.982;5.680;2024-02-04T06:39:32;14.0;68.8
78767;SHT31;68092;51.982;5.680;2024-02-04T06:42:00;13.9;68.9
78767;SHT31;68092;51.982;5.680;2024-02-04T06:44:29;13.9;69.1
78767;SHT31;68092;51.982;5.680;2024-02-04T06:46:57;13.9;69.3
78767;SHT31;68092;51.982;5.680;2024-02-04T06:49:26;13.9;69.2
78767;SHT31;68092;51.982;5.680;2024-02-04T06:51:57;13.9;69.2
78767;SHT31;68092;51.982;5.680;2024-02-04T06:54:25;13.9;69.3
78767;SHT31;68092;51.982;5.680;2024-02-04T06:56:56;13.9;69.4
78767;SHT31;68092;51.982;5.680;2024-02-04T06:59:26;13.9;69.5
78767;SHT31;68092;51.982;5.680;2024-02-04T07:01:55;13.9;69.5
78767;SHT31;68092;51.982;5.680;2024-02-04T07:04:23;14.0;69.5
78767;SHT31;68092;51.982;5.680;2024-02-04T07:06:52;14.0;69.4
78767;SHT31;68092;51.982;5.680;2024-02-04T07:09:21;14.0;69.4
78767;SHT31;68092;51.982;5.680;2024-02-04T07:11:49;14.0;69.4
78767;SHT31;68092;51.982;5.680;2024-02-04T07:14:18;14.0;69.4
78767;SHT31;68092;51.982;5.680;2024-02-04T07:16:47;14.0;69.4
78767;SHT31;68092;51.982;5.680;2024-02-04T07:19:16;14.0;69.5
78767;SHT31;68092;51.982;5.680;2024-02-04T07:21:45;14.0;69.6
78767;SHT31;68092;51.982;5.680;2024-02-04T07:24:14;13.9;69.7
78767;SHT31;68092;51.982;5.680;2024-02-04T07:26:42;13.9;69.8
78767;SHT31;68092;51.982;5.680;2024-02-04T07:29:12;13.9;69.9
78767;SHT31;68092;51.982;5.680;2024-02-04T07:31:42;13.9;70.0
78767;SHT31;68092;51.982;5.680;2024-02-04T07:34:10;13.9;70.0
78767;SHT31;68092;51.982;5.680;2024-02-04T07:36:40;13.9;70.0
78767;SHT31;68092;51.982;5.680;2024-02-04T07:39:09;13.9;70.0
78767;SHT31;68092;51.982;5.680;2024-02-04T07:41:38;13.9;70.0
78767;SHT31;68092;51.982;5.680;2024-02-04T07:44:06;13.9;70.0
78767;SHT31;68092;51.982;5.680;2024-02-04T07:46:35;13.9;70.2
78767;SHT31;68092;51.982;5.680;2024-02-04T07:49:03;13.9;70.2
78767;SHT31;68092;51.982;5.680;2024-02-04T07:51:32;13.9;70.2
78767;SHT31;68092;51.982;5.680;2024-02-04T07:54:02;13.8;70.1
78767;SHT31;68092;51.982;5.680;2024-02-04T07:56:31;13.8;70.2
78767;SHT31;68092;51.982;5.680;2024-02-04T07:59:00;13.8;70.2
78767;SHT31;68092;51.982;5.680;2024-02-04T08:01:30;13.8;70.2
78767;SHT31;68092;51.982;5.680;2024-02-04T08:03:59;13.8;70.1
78767;SHT31;68092;51.982;5.680;2024-02-04T08:06:28;13.8;70.1
78767;SHT31;68092;51.982;5.680;2024-02-04T08:08:58;13.8;70.2
78767;SHT31;68092;51.982;5.680;2024-02-04T08:11:28;13.8;70.0
78767;SHT31;68092;51.982;5.680;2024-02-04T08:13:57;13.8;69.9
78767;SHT31;68092;51.982;5.680;2024-02-04T08:16:28;13.8;69.9
78767;SHT31;68092;51.982;5.680;2024-02-04T08:18:57;13.8;69.9
78767;SHT31;68092;51.982;5.680;2024-02-04T08:21:26;13.8;69.8
78767;SHT31;68092;51.982;5.680;2024-02-04T08:23:58;13.9;69.7
78767;SHT31;68092;51.982;5.680;2024-02-04T08:26:27;13.9;69.6
78767;SHT31;68092;51.982;5.680;2024-02-04T08:28:55;13.9;69.7
78767;SHT31;68092;51.982;5.680;2024-02-04T08:31:24;13.9;69.4
78767;SHT31;68092;51.982;5.680;2024-02-04T08:33:52;13.9;69.4
78767;SHT31;68092;51.982;5.680;2024-02-04T08:36:21;13.9;69.4
78767;SHT31;68092;51.982;5.680;2024-02-04T08:38:49;13.9;69.2
78767;SHT31;68092;51.982;5.680;2024-02-04T08:41:18;13.9;69.2
78767;SHT31;68092;51.982;5.680;2024-02-04T08:43:47;13.9;69.0
78767;SHT31;68092;51.982;5.680;2024-02-04T08:46:16;13.9;69.1
78767;SHT31;68092;51.982;5.680;2024-02-04T08:48:44;13.9;69.1
78767;SHT31;68092;51.982;5.680;2024-02-04T08:51:13;13.9;69.0
78767;SHT31;68092;51.982;5.680;2024-02-04T08:53:44;13.9;69.1
78767;SHT31;68092;51.982;5.680;2024-02-04T08:56:13;13.9;68.9
78767;SHT31;68092;51.982;5.680;2024-02-04T08:58:41;13.9;68.8
78767;SHT31;68092;51.982;5.680;2024-02-04T09:01:10;13.9;68.9
78767;SHT31;68092;51.982;5.680;2024-02-04T09:03:38;14.0;68.9
78767;SHT31;68092;51.982;5.680;2024-02-04T09:06:09;14.0;69.0
78767;SHT31;68092;51.982;5.680;2024-02-04T09:08:37;14.0;69.1
78767;SHT31;68092;51.982;5.680;2024-02-04T09:11:06;14.0;69.1
78767;SHT31;68092;51.982;5.680;2024-02-04T09:13:36;14.0;69.2
78767;SHT31;68092;51.982;5.680;2024-02-04T09:16:05;14.0;69.4
78767;SHT31;68092;51.982;5.680;2024-02-04T09:18:34;14.0;69.5
78767;SHT31;68092;51.982;5.680;2024-02-04T09:21:04;14.0;69.6
78767;SHT31;68092;51.982;5.680;2024-02-04T09:23:34;14.0;69.7
78767;SHT31;68092;51.982;5.680;2024-02-04T09:26:02;13.9;69.7
78767;SHT31;68092;51.982;5.680;2024-02-04T09:28:31;13.9;69.9
78767;SHT31;68092;51.982;5.680;2024-02-04T09:30:59;13.9;70.1
78767;SHT31;68092;51.982;5.680;2024-02-04T09:33:29;13.9;70.2
78767;SHT31;68092;51.982;5.680;2024-02-04T09:35:58;13.9;70.5
78767;SHT31;68092;51.982;5.680;2024-02-04T09:38:28;13.9;70.5
78767;SHT31;68092;51.982;5.680;2024-02-04T09:40:57;13.9;70.8
78767;SHT31;68092;51.982;5.680;2024-02-04T09:43:27;13.9;70.9
78767;SHT31;68092;51.982;5.680;2024-02-04T09:45:55;13.9;70.9
78767;SHT31;68092;51.982;5.680;2024-02-04T09:48:25;13.9;70.9
78767;SHT31;68092;51.982;5.680;2024-02-04T09:50:54;13.9;71.0
78767;SHT31;68092;51.982;5.680;2024-02-04T09:53:31;13.9;70.9
78767;SHT31;68092;51.982;5.680;2024-02-04T09:56:02;13.9;71.0
78767;SHT31;68092;51.982;5.680;2024-02-04T09:58:33;13.9;71.2
78767;SHT31;68092;51.982;5.680;2024-02-04T10:01:02;13.9;71.0
78767;SHT31;68092;51.982;5.680;2024-02-04T10:03:31;13.9;71.0
78767;SHT31;68092;51.982;5.680;2024-02-04T10:06:00;13.9;71.1
78767;SHT31;68092;51.982;5.680;2024-02-04T10:08:29;13.9;71.1
78767;SHT31;68092;51.982;5.680;2024-02-04T10:10:59;13.9;70.9
78767;SHT31;68092;51.982;5.680;2024-02-04T10:13:28;13.9;71.0
78767;SHT31;68092;51.982;5.680;2024-02-04T10:15:56;13.9;70.9
78767;SHT31;68092;51.982;5.680;2024-02-04T10:18:25;14.0;71.0
78767;SHT31;68092;51.982;5.680;2024-02-04T10:20:54;14.0;70.9
78767;SHT31;68092;51.982;5.680;2024-02-04T10:23:22;14.0;71.0
78767;SHT31;68092;51.982;5.680;2024-02-04T10:25:59;14.0;71.0
78767;SHT31;68092;51.982;5.680;2024-02-04T10:28:27;14.0;71.0
78767;SHT31;68092;51.982;5.680;2024-02-04T10:30:56;14.0;71.0
78767;SHT31;68092;51.982;5.680;2024-02-04T10:33:24;14.1;70.8
78767;SHT31;68092;51.982;5.680;2024-02-04T10:35:53;14.1;70.6
78767;SHT31;68092;51.982;5.680;2024-02-04T10:38:21;14.1;70.3
78767;SHT31;68092;51.982;5.680;2024-02-04T10:40:54;14.1;70.2
78767;SHT31;68092;51.982;5.680;2024-02-04T10:43:24;14.1;70.2
78767;SHT31;68092;51.982;5.680;2024-02-04T10:46:01;14.1;70.1
78767;SHT31;68092;51.982;5.680;2024-02-04T10:48:36;14.2;70.2
78767;SHT31;68092;51.982;5.680;2024-02-04T10:51:12;14.2;69.6
78767;SHT31;68092;51.982;5.680;2024-02-04T10:53:43;14.2;69.3
78767;SHT31;68092;51.982;5.680;2024-02-04T10:56:16;14.2;69.2
78767;SHT31;68092;51.982;5.680;2024-02-04T10:58:48;14.2;69.1
78767;SHT31;68092;51.982;5.680;2024-02-04T11:01:18;14.2;68.9
78767;SHT31;68092;51.982;5.680;2024-02-04T11:03:48;14.2;69.1
78767;SHT31;68092;51.982;5.680;2024-02-04T11:06:20;14.2;69.4
78767;SHT31;68092;51.982;5.680;2024-02-04T11:08:51;14.2;69.9
78767;SHT31;68092;51.982;5.680;2024-02-04T11:11:21;14.2;70.2
78767;SHT31;68092;51.982;5.680;2024-02-04T11:13:56;14.2;70.2
78767;SHT31;68092;51.982;5.680;2024-02-04T11:16:50;14.2;70.6
78767;SHT31;68092;51.982;5.680;2024-02-04T11:19:20;14.2;70.7
78767;SHT31;68092;51.982;5.680;2024-02-04T11:22:22;14.3;70.7
78767;SHT31;68092;51.982;5.680;2024-02-04T11:25:11;14.3;70.6
78767;SHT31;68092;51.982;5.680;2024-02-04T11:27:42;14.3;70.6
78767;SHT31;68092;51.982;5.680;2024-02-04T11:30:11;14.3;70.5
78767;SHT31;68092;51.982;5.680;2024-02-04T11:32:41;14.3;70.6
78767;SHT31;68092;51.982;5.680;2024-02-04T11:35:11;14.3;70.5
78767;SHT31;68092;51.982;5.680;2024-02-04T11:37:42;14.4;70.6
78767;SHT31;68092;51.982;5.680;2024-02-04T11:40:15;14.4;70.5
78767;SHT31;68092;51.982;5.680;2024-02-04T11:42:45;14.4;70.5
78767;SHT31;68092;51.982;5.680;2024-02-04T11:45:14;14.4;70.4
78767;SHT31;68092;51.982;5.680;2024-02-04T11:47:43;14.4;70.7
78767;SHT31;68092;51.982;5.680;2024-02-04T11:50:11;14.4;70.7
78767;SHT31;68092;51.982;5.680;2024-02-04T11:52:41;14.4;70.8
78767;SHT31;68092;51.982;5.680;2024-02-04T11:55:15;14.4;70.8
78767;SHT31;68092;51.982;5.680;2024-02-04T11:57:45;14.4;70.8
78767;SHT31;68092;51.982;5.680;2024-02-04T12:00:15;14.4;70.7
78767;SHT31;68092;51.982;5.680;2024-02-04T12:02:44;14.4;70.8
78767;SHT31;68092;51.982;5.680;2024-02-04T12:05:15;14.4;70.7
78767;SHT31;68092;51.982;5.680;2024-02-04T12:07:43;14.4;70.7
78767;SHT31;68092;51.982;5.680;2024-02-04T12:10:16;14.4;70.8
78767;SHT31;68092;51.982;5.680;2024-02-04T12:12:45;14.4;70.8
78767;SHT31;68092;51.982;5.680;2024-02-04T12:15:14;14.3;70.9
78767;SHT31;68092;51.982;5.680;2024-02-04T12:17:44;14.3;70.9
78767;SHT31;68092;51.982;5.680;2024-02-04T12:20:12;14.3;71.1
78767;SHT31;68092;51.982;5.680;2024-02-04T12:22:41;14.3;71.1
78767;SHT31;68092;51.982;5.680;2024-02-04T12:25:10;14.3;71.1
78767;SHT31;68092;51.982;5.680;2024-02-04T12:27:39;14.3;71.0
78767;SHT31;68092;51.982;5.680;2024-02-04T12:30:09;14.3;71.1
78767;SHT31;68092;51.982;5.680;2024-02-04T12:32:38;14.3;71.1
78767;SHT31;68092;51.982;5.680;2024-02-04T12:35:14;14.3;71.2
78767;SHT31;68092;51.982;5.680;2024-02-04T12:37:51;14.3;71.4
78767;SHT31;68092;51.982;5.680;2024-02-04T12:40:22;14.3;71.3
78767;SHT31;68092;51.982;5.680;2024-02-04T12:42:56;14.3;71.3
78767;SHT31;68092;51.982;5.680;2024-02-04T12:45:26;14.3;71.3
78767;SHT31;68092;51.982;5.680;2024-02-04T12:47:58;14.3;71.1
78767;SHT31;68092;51.982;5.680;2024-02-04T12:50:26;14.3;70.9
78767;SHT31;68092;51.982;5.680;2024-02-04T12:53:05;14.3;70.8
78767;SHT31;68092;51.982;5.680;2024-02-04T12:55:35;14.3;70.8
78767;SHT31;68092;51.982;5.680;2024-02-04T12:58:06;14.3;70.7
78767;SHT31;68092;51.982;5.680;2024-02-04T13:00:39;14.3;70.5
78767;SHT31;68092;51.982;5.680;2024-02-04T13:03:08;14.3;70.5
78767;SHT31;68092;51.982;5.680;2024-02-04T13:05:37;14.4;70.3
78767;SHT31;68092;51.982;5.680;2024-02-04T13:08:08;14.4;70.3
78767;SHT31;68092;51.982;5.680;2024-02-04T13:10:39;14.4;70.3
78767;SHT31;68092;51.982;5.680;2024-02-04T13:13:10;14.4;70.0
78767;SHT31;68092;51.982;5.680;2024-02-04T13:15:42;14.4;70.1
78767;SHT31;68092;51.982;5.680;2024-02-04T13:18:12;14.4;70.1
78767;SHT31;68092;51.982;5.680;2024-02-04T13:20:41;14.4;70.2
78767;SHT31;68092;51.982;5.680;2024-02-04T13:23:12;14.4;70.4
78767;SHT31;68092;51.982;5.680;2024-02-04T13:25:40;14.3;70.4
78767;SHT31;68092;51.982;5.680;2024-02-04T13:28:10;14.3;70.5
78767;SHT31;68092;51.982;5.680;2024-02-04T13:30:40;14.3;70.5
78767;SHT31;68092;51.982;5.680;2024-02-04T13:33:10;14.3;70.5
78767;SHT31;68092;51.982;5.680;2024-02-04T13:35:40;14.3;70.5
78767;SHT31;68092;51.982;5.680;2024-02-04T13:38:08;14.3;70.4
78767;SHT31;68092;51.982;5.680;2024-02-04T13:40:37;14.3;70.5
78767;SHT31;68092;51.982;5.680;2024-02-04T13:43:06;14.3;70.4
78767;SHT31;68092;51.982;5.680;2024-02-04T13:45:35;14.3;70.6
78767;SHT31;68092;51.982;5.680;2024-02-04T13:48:04;14.3;70.5
78767;SHT31;68092;51.982;5.680;2024-02-04T13:50:33;14.3;70.6
78767;SHT31;68092;51.982;5.680;2024-02-04T13:53:03;14.3;70.5
78767;SHT31;68092;51.982;5.680;2024-02-04T13:55:31;14.3;70.6
78767;SHT31;68092;51.982;5.680;2024-02-04T13:58:00;14.3;70.5
78767;SHT31;68092;51.982;5.680;2024-02-04T14:00:29;14.3;70.4
78767;SHT31;68092;51.982;5.680;2024-02-04T14:02:57;14.3;70.5
78767;SHT31;68092;51.982;5.680;2024-02-04T14:05:28;14.3;70.5
78767;SHT31;68092;51.982;5.680;2024-02-04T14:07:56;14.3;70.5
78767;SHT31;68092;51.982;5.680;2024-02-04T14:10:25;14.3;70.5
78767;SHT31;68092;51.982;5.680;2024-02-04T14:12:53;14.3;70.5
78767;SHT31;68092;51.982;5.680;2024-02-04T14:15:22;14.3;70.5
78767;SHT31;68092;51.982;5.680;2024-02-04T14:17:50;14.3;70.5
78767;SHT31;68092;51.982;5.680;2024-02-04T14:20:20;14.3;70.7
78767;SHT31;68092;51.982;5.680;2024-02-04T14:22:49;14.3;70.6
78767;SHT31;68092;51.982;5.680;2024-02-04T14:25:17;14.3;70.6
78767;SHT31;68092;51.982;5.680;2024-02-04T14:27:46;14.3;70.6
78767;SHT31;68092;51.982;5.680;2024-02-04T14:30:15;14.3;70.6
78767;SHT31;68092;51.982;5.680;2024-02-04T14:32:44;14.3;70.7
78767;SHT31;68092;51.982;5.680;2024-02-04T14:35:12;14.3;70.6
78767;SHT31;68092;51.982;5.680;2024-02-04T14:37:42;14.3;70.4
78767;SHT31;68092;51.982;5.680;2024-02-04T14:40:14;14.3;70.4
78767;SHT31;68092;51.982;5.680;2024-02-04T14:42:43;14.3;70.2
78767;SHT31;68092;51.982;5.680;2024-02-04T14:45:12;14.3;70.2
78767;SHT31;68092;51.982;5.680;2024-02-04T14:47:41;14.3;70.1
78767;SHT31;68092;51.982;5.680;2024-02-04T14:50:09;14.3;70.2
78767;SHT31;68092;51.982;5.680;2024-02-04T14:52:39;14.3;70.1
78767;SHT31;68092;51.982;5.680;2024-02-04T14:55:08;14.3;70.0
78767;SHT31;68092;51.982;5.680;2024-02-04T14:57:37;14.3;70.0
78767;SHT31;68092;51.982;5.680;2024-02-04T15:00:07;14.3;70.0
78767;SHT31;68092;51.982;5.680;2024-02-04T15:02:36;14.4;69.9
78767;SHT31;68092;51.982;5.680;2024-02-04T15:05:06;14.3;69.9
78767;SHT31;68092;51.982;5.680;2024-02-04T15:07:37;14.4;69.7
78767;SHT31;68092;51.982;5.680;2024-02-04T15:10:07;14.4;69.6
78767;SHT31;68092;51.982;5.680;2024-02-04T15:12:36;14.4;69.5
78767;SHT31;68092;51.982;5.680;2024-02-04T15:15:07;14.4;69.5
78767;SHT31;68092;51.982;5.680;2024-02-04T15:17:36;14.4;69.5
78767;SHT31;68092;51.982;5.680;2024-02-04T15:20:07;14.4;69.6
78767;SHT31;68092;51.982;5.680;2024-02-04T15:22:41;14.4;69.6
78767;SHT31;68092;51.982;5.680;2024-02-04T15:25:11;14.4;69.8
78767;SHT31;68092;51.982;5.680;2024-02-04T15:27:43;14.4;69.7
78767;SHT31;68092;51.982;5.680;2024-02-04T15:30:14;14.4;69.7
78767;SHT31;68092;51.982;5.680;2024-02-04T15:32:47;14.4;69.7
78767;SHT31;68092;51.982;5.680;2024-02-04T15:35:18;14.4;69.7
78767;SHT31;68092;51.982;5.680;2024-02-04T15:37:47;14.4;69.7
78767;SHT31;68092;51.982;5.680;2024-02-04T15:40:16;14.4;69.5
78767;SHT31;68092;51.982;5.680;2024-02-04T15:42:47;14.4;69.7
78767;SHT31;68092;51.982;5.680;2024-02-04T15:45:16;14.4;69.8
78767;SHT31;68092;51.982;5.680;2024-02-04T15:47:49;14.4;69.8
78767;SHT31;68092;51.982;5.680;2024-02-04T15:50:22;14.4;69.7
78767;SHT31;68092;51.982;5.680;2024-02-04T15:52:51;14.4;69.5
78767;SHT31;68092;51.982;5.680;2024-02-04T15:55:21;14.4;69.4
78767;SHT31;68092;51.982;5.680;2024-02-04T15:57:51;14.4;69.1
78767;SHT31;68092;51.982;5.680;2024-02-04T16:00:21;14.4;69.0
78767;SHT31;68092;51.982;5.680;2024-02-04T16:02:54;14.4;69.2
78767;SHT31;68092;51.982;5.680;2024-02-04T16:05:24;14.4;69.1
78767;SHT31;68092;51.982;5.680;2024-02-04T16:07:54;14.4;69.2
78767;SHT31;68092;51.982;5.680;2024-02-04T16:10:24;14.4;69.1
78767;SHT31;68092;51.982;5.680;2024-02-04T16:12:55;14.4;69.2
78767;SHT31;68092;51.982;5.680;2024-02-04T16:15:26;14.4;69.1
78767;SHT31;68092;51.982;5.680;2024-02-04T16:17:59;14.4;69.1